sensor_id;sensor_type;location;lat;lon;timestamp;P1;durP1;ratioP1;P2;durP2;ratioP2
16037;SDS011;8123;50.906;6.172;2024-01-06T00:00:35;21.33;;;13.20;;
16037;SDS011;8123;50.906;6.172;2024-01-06T00:03:00;27.27;;;14.67;;
16037;SDS011;8123;50.906;6.172;2024-01-06T00:05:26;31.97;;;14.83;;
16037;SDS011;8123;50.906;6.172;2024-01-06T00:07:52;27.80;;;15.30;;
16037;SDS011;8123;50.906;6.172;2024-01-06T00:10:17;25.00;;;14.40;;
16037;SDS011;8123;50.906;6.172;2024-01-06T00:12:43;41.27;;;16.67;;
16037;SDS011;8123;50.906;6.172;2024-01-06T00:15:09;26.50;;;15.43;;
16037;SDS011;8123;50.906;6.172;2024-01-06T00:17:35;32.50;;;17.40;;
16037;SDS011;8123;50.906;6.172;2024-01-06T00:20:01;24.50;;;15.10;;
16037;SDS011;8123;50.906;6.172;2024-01-06T00:22:27;30.70;;;14.60;;
16037;SDS011;8123;50.906;6.172;2024-01-06T00:24:53;34.70;;;16.57;;
16037;SDS011;8123;50.906;6.172;2024-01-06T00:27:18;26.57;;;15.57;;
16037;SDS011;8123;50.906;6.172;2024-01-06T00:29:44;27.93;;;15.93;;
16037;SDS011;8123;50.906;6.172;2024-01-06T00:32:10;25.17;;;14.40;;
16037;SDS011;8123;50.906;6.172;2024-01-06T00:34:35;33.67;;;17.63;;
16037;SDS011;8123;50.906;6.172;2024-01-06T00:37:01;30.97;;;16.87;;
16037;SDS011;8123;50.906;6.172;2024-01-06T00:39:27;39.10;;;18.60;;
16037;SDS011;8123;50.906;6.172;2024-01-06T00:41:52;31.67;;;17.43;;
16037;SDS011;8123;50.906;6.172;2024-01-06T00:44:18;36.03;;;18.67;;
16037;SDS011;8123;50.906;6.172;2024-01-06T00:46:44;36.80;;;19.50;;
16037;SDS011;8123;50.906;6.172;2024-01-06T00:49:10;46.03;;;21.37;;
16037;SDS011;8123;50.906;6.172;2024-01-06T00:51:35;37.77;;;19.77;;
16037;SDS011;8123;50.906;6.172;2024-01-06T00:54:01;35.57;;;18.30;;
16037;SDS011;8123;50.906;6.172;2024-01-06T00:56:27;40.03;;;19.77;;
16037;SDS011;8123;50.906;6.172;2024-01-06T00:58:53;44.57;;;20.30;;
16037;SDS011;8123;50.906;6.172;2024-01-06T01:01:19;34.67;;;19.70;;
16037;SDS011;8123;50.906;6.172;2024-01-06T01:03:45;44.77;;;19.77;;
16037;SDS011;8123;50.906;6.172;2024-01-06T01:06:11;49.50;;;19.80;;
16037;SDS011;8123;50.906;6.172;2024-01-06T01:08:36;66.00;;;21.93;;
16037;SDS011;8123;50.906;6.172;2024-01-06T01:11:02;51.97;;;21.93;;
16037;SDS011;8123;50.906;6.172;2024-01-06T01:13:28;43.90;;;20.40;;
16037;SDS011;8123;50.906;6.172;2024-01-06T01:15:53;44.13;;;19.90;;
16037;SDS011;8123;50.906;6.172;2024-01-06T01:18:20;46.37;;;22.87;;
16037;SDS011;8123;50.906;6.172;2024-01-06T01:20:46;47.87;;;21.60;;
16037;SDS011;8123;50.906;6.172;2024-01-06T01:23:12;52.63;;;22.83;;
16037;SDS011;8123;50.906;6.172;2024-01-06T01:25:37;40.20;;;19.80;;
16037;SDS011;8123;50.906;6.172;2024-01-06T01:28:03;53.63;;;22.23;;
16037;SDS011;8123;50.906;6.172;2024-01-06T01:30:29;48.67;;;21.47;;
16037;SDS011;8123;50.906;6.172;2024-01-06T01:32:55;48.23;;;21.90;;
16037;SDS011;8123;50.906;6.172;2024-01-06T01:35:20;44.47;;;22.80;;
16037;SDS011;8123;50.906;6.172;2024-01-06T01:37:46;45.43;;;21.13;;
16037;SDS011;8123;50.906;6.172;2024-01-06T01:40:12;44.47;;;21.83;;
16037;SDS011;8123;50.906;6.172;2024-01-06T01:42:37;44.27;;;20.87;;
16037;SDS011;8123;50.906;6.172;2024-01-06T01:45:04;44.67;;;22.47;;
16037;SDS011;8123;50.906;6.172;2024-01-06T01:47:30;48.63;;;22.57;;
16037;SDS011;8123;50.906;6.172;2024-01-06T01:49:55;42.77;;;21.50;;
16037;SDS011;8123;50.906;6.172;2024-01-06T01:52:22;38.90;;;21.53;;
16037;SDS011;8123;50.906;6.172;2024-01-06T01:54:48;52.50;;;22.10;;
16037;SDS011;8123;50.906;6.172;2024-01-06T01:57:15;39.80;;;20.47;;
16037;SDS011;8123;50.906;6.172;2024-01-06T01:59:41;51.47;;;23.47;;
16037;SDS011;8123;50.906;6.172;2024-01-06T02:02:07;42.77;;;22.37;;
16037;SDS011;8123;50.906;6.172;2024-01-06T02:04:34;43.97;;;22.30;;
16037;SDS011;8123;50.906;6.172;2024-01-06T02:07:00;50.23;;;22.20;;
16037;SDS011;8123;50.906;6.172;2024-01-06T02:09:26;51.73;;;21.80;;
16037;SDS011;8123;50.906;6.172;2024-01-06T02:11:54;38.03;;;20.50;;
16037;SDS011;8123;50.906;6.172;2024-01-06T02:14:23;51.87;;;22.87;;
16037;SDS011;8123;50.906;6.172;2024-01-06T02:16:49;42.53;;;22.00;;
16037;SDS011;8123;50.906;6.172;2024-01-06T02:19:14;48.20;;;21.57;;
16037;SDS011;8123;50.906;6.172;2024-01-06T02:21:41;40.80;;;21.13;;
16037;SDS011;8123;50.906;6.172;2024-01-06T02:24:08;52.60;;;22.00;;
16037;SDS011;8123;50.906;6.172;2024-01-06T02:26:34;55.37;;;20.40;;
16037;SDS011;8123;50.906;6.172;2024-01-06T02:29:00;43.80;;;21.13;;
16037;SDS011;8123;50.906;6.172;2024-01-06T02:31:26;48.83;;;23.80;;
16037;SDS011;8123;50.906;6.172;2024-01-06T02:33:55;41.17;;;22.50;;
16037;SDS011;8123;50.906;6.172;2024-01-06T02:36:20;41.63;;;20.90;;
16037;SDS011;8123;50.906;6.172;2024-01-06T02:38:46;41.03;;;21.43;;
16037;SDS011;8123;50.906;6.172;2024-01-06T02:41:11;37.53;;;19.57;;
16037;SDS011;8123;50.906;6.172;2024-01-06T02:43:37;43.10;;;19.80;;
16037;SDS011;8123;50.906;6.172;2024-01-06T02:46:03;33.93;;;17.23;;
16037;SDS011;8123;50.906;6.172;2024-01-06T02:48:28;33.70;;;16.00;;
16037;SDS011;8123;50.906;6.172;2024-01-06T02:50:55;27.07;;;14.10;;
16037;SDS011;8123;50.906;6.172;2024-01-06T02:53:21;30.60;;;14.57;;
16037;SDS011;8123;50.906;6.172;2024-01-06T02:55:47;24.70;;;12.60;;
16037;SDS011;8123;50.906;6.172;2024-01-06T02:58:13;27.63;;;14.27;;
16037;SDS011;8123;50.906;6.172;2024-01-06T03:00:38;29.37;;;14.63;;
16037;SDS011;8123;50.906;6.172;2024-01-06T03:03:04;37.60;;;14.90;;
16037;SDS011;8123;50.906;6.172;2024-01-06T03:05:30;30.60;;;14.77;;
16037;SDS011;8123;50.906;6.172;2024-01-06T03:07:56;34.47;;;14.30;;
16037;SDS011;8123;50.906;6.172;2024-01-06T03:10:22;35.10;;;15.10;;
16037;SDS011;8123;50.906;6.172;2024-01-06T03:12:47;33.20;;;15.50;;
16037;SDS011;8123;50.906;6.172;2024-01-06T03:15:13;27.43;;;14.47;;
16037;SDS011;8123;50.906;6.172;2024-01-06T03:17:39;32.63;;;15.07;;
16037;SDS011;8123;50.906;6.172;2024-01-06T03:20:04;23.63;;;14.40;;
16037;SDS011;8123;50.906;6.172;2024-01-06T03:22:30;25.40;;;11.00;;
16037;SDS011;8123;50.906;6.172;2024-01-06T03:24:56;29.70;;;12.97;;
16037;SDS011;8123;50.906;6.172;2024-01-06T03:27:22;25.13;;;10.90;;
16037;SDS011;8123;50.906;6.172;2024-01-06T03:29:47;23.30;;;11.70;;
16037;SDS011;8123;50.906;6.172;2024-01-06T03:32:13;21.33;;;11.03;;
16037;SDS011;8123;50.906;6.172;2024-01-06T03:34:40;21.57;;;12.57;;
16037;SDS011;8123;50.906;6.172;2024-01-06T03:37:06;20.80;;;11.67;;
16037;SDS011;8123;50.906;6.172;2024-01-06T03:39:31;33.00;;;13.37;;
16037;SDS011;8123;50.906;6.172;2024-01-06T03:41:57;31.60;;;14.37;;
16037;SDS011;8123;50.906;6.172;2024-01-06T03:44:22;31.23;;;14.83;;
16037;SDS011;8123;50.906;6.172;2024-01-06T03:46:48;32.10;;;16.10;;
16037;SDS011;8123;50.906;6.172;2024-01-06T03:49:14;34.07;;;15.87;;
16037;SDS011;8123;50.906;6.172;2024-01-06T03:51:39;37.30;;;15.80;;
16037;SDS011;8123;50.906;6.172;2024-01-06T03:54:05;29.87;;;15.10;;
16037;SDS011;8123;50.906;6.172;2024-01-06T03:56:30;38.20;;;15.53;;
16037;SDS011;8123;50.906;6.172;2024-01-06T03:58:56;33.87;;;16.37;;
16037;SDS011;8123;50.906;6.172;2024-01-06T04:01:21;33.73;;;16.10;;
16037;SDS011;8123;50.906;6.172;2024-01-06T04:03:47;42.70;;;17.23;;
16037;SDS011;8123;50.906;6.172;2024-01-06T04:06:13;46.63;;;18.60;;
16037;SDS011;8123;50.906;6.172;2024-01-06T04:08:39;46.53;;;19.20;;
16037;SDS011;8123;50.906;6.172;2024-01-06T04:11:06;45.27;;;19.80;;
16037;SDS011;8123;50.906;6.172;2024-01-06T04:13:31;42.27;;;20.20;;
16037;SDS011;8123;50.906;6.172;2024-01-06T04:15:57;50.73;;;20.93;;
16037;SDS011;8123;50.906;6.172;2024-01-06T04:18:22;49.63;;;19.50;;
16037;SDS011;8123;50.906;6.172;2024-01-06T04:20:48;46.17;;;21.00;;
16037;SDS011;8123;50.906;6.172;2024-01-06T04:23:13;42.47;;;18.47;;
16037;SDS011;8123;50.906;6.172;2024-01-06T04:25:39;43.27;;;18.07;;
16037;SDS011;8123;50.906;6.172;2024-01-06T04:28:05;46.30;;;19.53;;
16037;SDS011;8123;50.906;6.172;2024-01-06T04:30:30;44.70;;;19.67;;
16037;SDS011;8123;50.906;6.172;2024-01-06T04:32:56;47.97;;;19.30;;
16037;SDS011;8123;50.906;6.172;2024-01-06T04:35:22;48.80;;;19.93;;
16037;SDS011;8123;50.906;6.172;2024-01-06T04:37:48;44.10;;;19.97;;
16037;SDS011;8123;50.906;6.172;2024-01-06T04:40:14;51.03;;;19.90;;
16037;SDS011;8123;50.906;6.172;2024-01-06T04:42:40;42.53;;;19.67;;
16037;SDS011;8123;50.906;6.172;2024-01-06T04:45:05;55.77;;;20.90;;
16037;SDS011;8123;50.906;6.172;2024-01-06T04:47:32;50.20;;;22.00;;
16037;SDS011;8123;50.906;6.172;2024-01-06T04:49:57;50.80;;;20.20;;
16037;SDS011;8123;50.906;6.172;2024-01-06T04:52:23;46.47;;;19.77;;
16037;SDS011;8123;50.906;6.172;2024-01-06T04:54:48;44.60;;;20.40;;
16037;SDS011;8123;50.906;6.172;2024-01-06T04:57:14;43.67;;;18.87;;
16037;SDS011;8123;50.906;6.172;2024-01-06T04:59:40;51.20;;;19.83;;
16037;SDS011;8123;50.906;6.172;2024-01-06T05:02:07;48.47;;;18.00;;
16037;SDS011;8123;50.906;6.172;2024-01-06T05:04:32;51.37;;;20.77;;
16037;SDS011;8123;50.906;6.172;2024-01-06T05:06:58;41.87;;;16.50;;
16037;SDS011;8123;50.906;6.172;2024-01-06T05:09:27;47.37;;;18.07;;
16037;SDS011;8123;50.906;6.172;2024-01-06T05:11:52;38.20;;;17.30;;
16037;SDS011;8123;50.906;6.172;2024-01-06T05:14:18;48.73;;;19.07;;
16037;SDS011;8123;50.906;6.172;2024-01-06T05:16:44;41.70;;;18.53;;
16037;SDS011;8123;50.906;6.172;2024-01-06T05:19:09;49.27;;;19.53;;
16037;SDS011;8123;50.906;6.172;2024-01-06T05:21:35;46.50;;;20.30;;
16037;SDS011;8123;50.906;6.172;2024-01-06T05:24:01;55.33;;;20.30;;
16037;SDS011;8123;50.906;6.172;2024-01-06T05:26:28;53.53;;;21.30;;
16037;SDS011;8123;50.906;6.172;2024-01-06T05:28:53;54.40;;;19.80;;
16037;SDS011;8123;50.906;6.172;2024-01-06T05:31:19;49.87;;;19.83;;
16037;SDS011;8123;50.906;6.172;2024-01-06T05:33:45;47.43;;;19.60;;
16037;SDS011;8123;50.906;6.172;2024-01-06T05:36:10;49.33;;;20.53;;
16037;SDS011;8123;50.906;6.172;2024-01-06T05:38:36;47.47;;;17.30;;
16037;SDS011;8123;50.906;6.172;2024-01-06T05:41:02;49.03;;;20.20;;
16037;SDS011;8123;50.906;6.172;2024-01-06T05:43:27;50.90;;;19.13;;
16037;SDS011;8123;50.906;6.172;2024-01-06T05:45:53;53.33;;;20.07;;
16037;SDS011;8123;50.906;6.172;2024-01-06T05:48:19;52.83;;;21.17;;
16037;SDS011;8123;50.906;6.172;2024-01-06T05:50:44;48.40;;;18.67;;
16037;SDS011;8123;50.906;6.172;2024-01-06T05:53:10;47.00;;;19.00;;
16037;SDS011;8123;50.906;6.172;2024-01-06T05:55:36;46.80;;;19.60;;
16037;SDS011;8123;50.906;6.172;2024-01-06T05:58:03;49.80;;;20.17;;
16037;SDS011;8123;50.906;6.172;2024-01-06T06:00:29;57.67;;;20.40;;
16037;SDS011;8123;50.906;6.172;2024-01-06T06:02:56;48.23;;;20.40;;
16037;SDS011;8123;50.906;6.172;2024-01-06T06:05:22;41.50;;;20.70;;
16037;SDS011;8123;50.906;6.172;2024-01-06T06:07:48;39.37;;;16.47;;
16037;SDS011;8123;50.906;6.172;2024-01-06T06:10:13;43.10;;;19.57;;
16037;SDS011;8123;50.906;6.172;2024-01-06T06:12:41;44.20;;;19.60;;
16037;SDS011;8123;50.906;6.172;2024-01-06T06:15:06;45.80;;;18.63;;
16037;SDS011;8123;50.906;6.172;2024-01-06T06:17:33;40.53;;;18.10;;
16037;SDS011;8123;50.906;6.172;2024-01-06T06:19:58;42.23;;;17.47;;
16037;SDS011;8123;50.906;6.172;2024-01-06T06:22:25;38.87;;;17.70;;
16037;SDS011;8123;50.906;6.172;2024-01-06T06:24:55;36.87;;;17.17;;
16037;SDS011;8123;50.906;6.172;2024-01-06T06:27:24;41.97;;;17.03;;
16037;SDS011;8123;50.906;6.172;2024-01-06T06:29:50;43.47;;;16.70;;
16037;SDS011;8123;50.906;6.172;2024-01-06T06:32:15;35.40;;;15.13;;
16037;SDS011;8123;50.906;6.172;2024-01-06T06:34:42;33.67;;;15.17;;
16037;SDS011;8123;50.906;6.172;2024-01-06T06:37:08;30.27;;;13.90;;
16037;SDS011;8123;50.906;6.172;2024-01-06T06:39:33;35.70;;;15.50;;
16037;SDS011;8123;50.906;6.172;2024-01-06T06:42:00;34.83;;;16.03;;
16037;SDS011;8123;50.906;6.172;2024-01-06T06:44:26;33.20;;;14.77;;
16037;SDS011;8123;50.906;6.172;2024-01-06T06:46:52;34.10;;;13.23;;
16037;SDS011;8123;50.906;6.172;2024-01-06T06:49:17;34.07;;;14.90;;
16037;SDS011;8123;50.906;6.172;2024-01-06T06:51:43;34.43;;;15.50;;
16037;SDS011;8123;50.906;6.172;2024-01-06T06:54:13;31.63;;;13.87;;
16037;SDS011;8123;50.906;6.172;2024-01-06T06:56:40;31.30;;;14.07;;
16037;SDS011;8123;50.906;6.172;2024-01-06T06:59:06;32.90;;;14.13;;
16037;SDS011;8123;50.906;6.172;2024-01-06T07:01:32;33.77;;;15.00;;
16037;SDS011;8123;50.906;6.172;2024-01-06T07:03:59;40.10;;;15.30;;
16037;SDS011;8123;50.906;6.172;2024-01-06T07:06:24;36.67;;;14.30;;
16037;SDS011;8123;50.906;6.172;2024-01-06T07:08:50;25.87;;;13.50;;
16037;SDS011;8123;50.906;6.172;2024-01-06T07:11:15;32.47;;;14.03;;
16037;SDS011;8123;50.906;6.172;2024-01-06T07:13:43;33.33;;;13.93;;
16037;SDS011;8123;50.906;6.172;2024-01-06T07:16:09;35.03;;;15.13;;
16037;SDS011;8123;50.906;6.172;2024-01-06T07:18:34;41.77;;;16.10;;
16037;SDS011;8123;50.906;6.172;2024-01-06T07:21:00;40.20;;;15.00;;
16037;SDS011;8123;50.906;6.172;2024-01-06T07:23:26;45.93;;;16.17;;
16037;SDS011;8123;50.906;6.172;2024-01-06T07:25:51;31.37;;;14.50;;
16037;SDS011;8123;50.906;6.172;2024-01-06T07:28:17;44.53;;;16.43;;
16037;SDS011;8123;50.906;6.172;2024-01-06T07:30:43;41.37;;;16.93;;
16037;SDS011;8123;50.906;6.172;2024-01-06T07:33:09;35.97;;;14.90;;
16037;SDS011;8123;50.906;6.172;2024-01-06T07:35:36;27.00;;;14.63;;
16037;SDS011;8123;50.906;6.172;2024-01-06T07:38:02;40.40;;;17.10;;
16037;SDS011;8123;50.906;6.172;2024-01-06T07:40:28;29.40;;;13.43;;
16037;SDS011;8123;50.906;6.172;2024-01-06T07:42:53;40.70;;;16.47;;
16037;SDS011;8123;50.906;6.172;2024-01-06T07:45:19;30.47;;;14.33;;
16037;SDS011;8123;50.906;6.172;2024-01-06T07:47:44;28.33;;;12.53;;
16037;SDS011;8123;50.906;6.172;2024-01-06T07:50:10;29.43;;;13.70;;
16037;SDS011;8123;50.906;6.172;2024-01-06T07:52:35;29.03;;;12.13;;
16037;SDS011;8123;50.906;6.172;2024-01-06T07:55:01;23.87;;;11.53;;
16037;SDS011;8123;50.906;6.172;2024-01-06T07:57:27;24.33;;;12.70;;
16037;SDS011;8123;50.906;6.172;2024-01-06T07:59:52;30.50;;;12.77;;
16037;SDS011;8123;50.906;6.172;2024-01-06T08:02:18;27.10;;;12.80;;
16037;SDS011;8123;50.906;6.172;2024-01-06T08:04:43;28.83;;;13.00;;
16037;SDS011;8123;50.906;6.172;2024-01-06T08:07:09;27.53;;;11.57;;
16037;SDS011;8123;50.906;6.172;2024-01-06T08:09:35;25.40;;;11.50;;
16037;SDS011;8123;50.906;6.172;2024-01-06T08:12:01;31.03;;;13.60;;
16037;SDS011;8123;50.906;6.172;2024-01-06T08:14:28;29.47;;;13.50;;
16037;SDS011;8123;50.906;6.172;2024-01-06T08:16:53;26.23;;;13.50;;
16037;SDS011;8123;50.906;6.172;2024-01-06T08:19:19;29.30;;;13.90;;
16037;SDS011;8123;50.906;6.172;2024-01-06T08:21:45;26.37;;;12.57;;
16037;SDS011;8123;50.906;6.172;2024-01-06T08:24:12;29.43;;;13.60;;
16037;SDS011;8123;50.906;6.172;2024-01-06T08:26:37;25.33;;;11.87;;
16037;SDS011;8123;50.906;6.172;2024-01-06T08:29:03;27.87;;;13.10;;
16037;SDS011;8123;50.906;6.172;2024-01-06T08:31:29;29.20;;;14.27;;
16037;SDS011;8123;50.906;6.172;2024-01-06T08:33:54;25.53;;;12.67;;
16037;SDS011;8123;50.906;6.172;2024-01-06T08:36:20;23.93;;;12.03;;
16037;SDS011;8123;50.906;6.172;2024-01-06T08:38:46;24.40;;;12.43;;
16037;SDS011;8123;50.906;6.172;2024-01-06T08:41:12;23.50;;;12.40;;
16037;SDS011;8123;50.906;6.172;2024-01-06T08:43:38;23.70;;;12.00;;
16037;SDS011;8123;50.906;6.172;2024-01-06T08:46:03;25.40;;;12.07;;
16037;SDS011;8123;50.906;6.172;2024-01-06T08:48:30;24.03;;;12.00;;
16037;SDS011;8123;50.906;6.172;2024-01-06T08:50:56;26.00;;;13.40;;
16037;SDS011;8123;50.906;6.172;2024-01-06T08:53:21;26.43;;;12.43;;
16037;SDS011;8123;50.906;6.172;2024-01-06T08:55:47;27.33;;;14.33;;
16037;SDS011;8123;50.906;6.172;2024-01-06T08:58:13;26.10;;;11.90;;
16037;SDS011;8123;50.906;6.172;2024-01-06T09:00:38;23.27;;;12.20;;
16037;SDS011;8123;50.906;6.172;2024-01-06T09:03:04;19.83;;;10.93;;
16037;SDS011;8123;50.906;6.172;2024-01-06T09:05:30;26.90;;;11.37;;
16037;SDS011;8123;50.906;6.172;2024-01-06T09:07:56;24.57;;;12.43;;
16037;SDS011;8123;50.906;6.172;2024-01-06T09:10:22;27.17;;;13.27;;
16037;SDS011;8123;50.906;6.172;2024-01-06T09:12:47;22.70;;;11.73;;
16037;SDS011;8123;50.906;6.172;2024-01-06T09:15:13;24.77;;;13.27;;
16037;SDS011;8123;50.906;6.172;2024-01-06T09:17:38;25.00;;;11.20;;
16037;SDS011;8123;50.906;6.172;2024-01-06T09:20:05;23.13;;;11.73;;
16037;SDS011;8123;50.906;6.172;2024-01-06T09:22:31;22.03;;;11.67;;
16037;SDS011;8123;50.906;6.172;2024-01-06T09:24:57;25.33;;;11.20;;
16037;SDS011;8123;50.906;6.172;2024-01-06T09:27:24;21.07;;;10.83;;
16037;SDS011;8123;50.906;6.172;2024-01-06T09:29:49;21.27;;;10.93;;
16037;SDS011;8123;50.906;6.172;2024-01-06T09:32:16;22.63;;;11.97;;
16037;SDS011;8123;50.906;6.172;2024-01-06T09:34:41;19.80;;;10.53;;
16037;SDS011;8123;50.906;6.172;2024-01-06T09:37:07;25.73;;;11.90;;
16037;SDS011;8123;50.906;6.172;2024-01-06T09:39:33;19.97;;;9.80;;
16037;SDS011;8123;50.906;6.172;2024-01-06T09:41:59;28.47;;;10.60;;
16037;SDS011;8123;50.906;6.172;2024-01-06T09:44:24;19.03;;;11.00;;
16037;SDS011;8123;50.906;6.172;2024-01-06T09:46:50;19.90;;;9.83;;
16037;SDS011;8123;50.906;6.172;2024-01-06T09:49:18;26.80;;;12.47;;
16037;SDS011;8123;50.906;6.172;2024-01-06T09:51:49;19.80;;;10.03;;
16037;SDS011;8123;50.906;6.172;2024-01-06T09:54:16;17.30;;;9.97;;
16037;SDS011;8123;50.906;6.172;2024-01-06T09:56:51;21.43;;;10.80;;
16037;SDS011;8123;50.906;6.172;2024-01-06T09:59:16;18.67;;;10.07;;
16037;SDS011;8123;50.906;6.172;2024-01-06T10:01:45;21.20;;;10.40;;
16037;SDS011;8123;50.906;6.172;2024-01-06T10:04:10;19.83;;;9.47;;
16037;SDS011;8123;50.906;6.172;2024-01-06T10:06:36;19.70;;;9.43;;
16037;SDS011;8123;50.906;6.172;2024-01-06T10:09:02;22.83;;;10.23;;
16037;SDS011;8123;50.906;6.172;2024-01-06T10:11:29;19.80;;;10.10;;
16037;SDS011;8123;50.906;6.172;2024-01-06T10:13:55;23.00;;;10.80;;
16037;SDS011;8123;50.906;6.172;2024-01-06T10:16:21;18.50;;;10.07;;
16037;SDS011;8123;50.906;6.172;2024-01-06T10:18:47;24.77;;;12.20;;
16037;SDS011;8123;50.906;6.172;2024-01-06T10:21:13;17.27;;;10.67;;
16037;SDS011;8123;50.906;6.172;2024-01-06T10:23:42;18.57;;;9.23;;
16037;SDS011;8123;50.906;6.172;2024-01-06T10:26:10;19.03;;;9.57;;
16037;SDS011;8123;50.906;6.172;2024-01-06T10:28:38;18.70;;;10.30;;
16037;SDS011;8123;50.906;6.172;2024-01-06T10:31:04;20.77;;;10.70;;
16037;SDS011;8123;50.906;6.172;2024-01-06T10:33:29;24.37;;;10.67;;
16037;SDS011;8123;50.906;6.172;2024-01-06T10:35:58;20.60;;;10.73;;
16037;SDS011;8123;50.906;6.172;2024-01-06T10:38:26;17.30;;;9.93;;
16037;SDS011;8123;50.906;6.172;2024-01-06T10:41:02;15.00;;;8.20;;
16037;SDS011;8123;50.906;6.172;2024-01-06T10:43:35;19.63;;;9.80;;
16037;SDS011;8123;50.906;6.172;2024-01-06T10:46:05;15.27;;;8.20;;
16037;SDS011;8123;50.906;6.172;2024-01-06T10:48:35;18.30;;;9.40;;
16037;SDS011;8123;50.906;6.172;2024-01-06T10:51:03;20.87;;;9.10;;
16037;SDS011;8123;50.906;6.172;2024-01-06T10:53:33;21.50;;;11.17;;
16037;SDS011;8123;50.906;6.172;2024-01-06T10:56:02;16.13;;;9.50;;
16037;SDS011;8123;50.906;6.172;2024-01-06T10:58:28;18.47;;;9.63;;
16037;SDS011;8123;50.906;6.172;2024-01-06T11:00:56;23.13;;;11.27;;
16037;SDS011;8123;50.906;6.172;2024-01-06T11:03:22;23.40;;;10.83;;
16037;SDS011;8123;50.906;6.172;2024-01-06T11:05:48;19.47;;;11.57;;
16037;SDS011;8123;50.906;6.172;2024-01-06T11:08:15;20.47;;;10.73;;
16037;SDS011;8123;50.906;6.172;2024-01-06T11:10:42;15.50;;;8.93;;
16037;SDS011;8123;50.906;6.172;2024-01-06T11:13:10;20.47;;;10.37;;
16037;SDS011;8123;50.906;6.172;2024-01-06T11:18:08;21.87;;;9.40;;
16037;SDS011;8123;50.906;6.172;2024-01-06T11:20:34;28.47;;;15.13;;
16037;SDS011;8123;50.906;6.172;2024-01-06T11:23:16;23.50;;;11.20;;
16037;SDS011;8123;50.906;6.172;2024-01-06T11:25:46;23.87;;;11.40;;
16037;SDS011;8123;50.906;6.172;2024-01-06T11:28:12;21.27;;;11.23;;
16037;SDS011;8123;50.906;6.172;2024-01-06T11:30:37;24.07;;;11.07;;
16037;SDS011;8123;50.906;6.172;2024-01-06T11:33:04;16.43;;;7.60;;
16037;SDS011;8123;50.906;6.172;2024-01-06T11:35:30;18.33;;;9.90;;
16037;SDS011;8123;50.906;6.172;2024-01-06T11:38:01;21.00;;;9.97;;
16037;SDS011;8123;50.906;6.172;2024-01-06T11:40:33;22.23;;;10.40;;
16037;SDS011;8123;50.906;6.172;2024-01-06T11:45:30;17.93;;;8.40;;
16037;SDS011;8123;50.906;6.172;2024-01-06T11:48:01;23.13;;;9.37;;
16037;SDS011;8123;50.906;6.172;2024-01-06T11:50:29;17.07;;;9.70;;
16037;SDS011;8123;50.906;6.172;2024-01-06T11:52:57;19.73;;;10.10;;
16037;SDS011;8123;50.906;6.172;2024-01-06T11:55:24;23.00;;;9.87;;
16037;SDS011;8123;50.906;6.172;2024-01-06T11:57:56;21.50;;;9.87;;
16037;SDS011;8123;50.906;6.172;2024-01-06T12:00:28;23.13;;;9.20;;
16037;SDS011;8123;50.906;6.172;2024-01-06T12:03:00;17.47;;;8.40;;
16037;SDS011;8123;50.906;6.172;2024-01-06T12:05:26;14.03;;;8.53;;
16037;SDS011;8123;50.906;6.172;2024-01-06T12:07:56;27.27;;;10.93;;
16037;SDS011;8123;50.906;6.172;2024-01-06T12:10:23;19.80;;;8.20;;
16037;SDS011;8123;50.906;6.172;2024-01-06T12:12:56;19.80;;;8.13;;
16037;SDS011;8123;50.906;6.172;2024-01-06T12:15:23;23.87;;;11.43;;
16037;SDS011;8123;50.906;6.172;2024-01-06T12:17:49;35.70;;;10.50;;
16037;SDS011;8123;50.906;6.172;2024-01-06T12:20:15;22.53;;;10.43;;
16037;SDS011;8123;50.906;6.172;2024-01-06T12:22:41;21.07;;;10.53;;
16037;SDS011;8123;50.906;6.172;2024-01-06T12:25:08;29.90;;;10.90;;
16037;SDS011;8123;50.906;6.172;2024-01-06T12:27:34;18.57;;;9.20;;
16037;SDS011;8123;50.906;6.172;2024-01-06T12:30:00;21.77;;;12.00;;
16037;SDS011;8123;50.906;6.172;2024-01-06T12:32:25;23.67;;;12.07;;
16037;SDS011;8123;50.906;6.172;2024-01-06T12:34:51;20.53;;;9.27;;
16037;SDS011;8123;50.906;6.172;2024-01-06T12:37:17;19.10;;;10.70;;
16037;SDS011;8123;50.906;6.172;2024-01-06T12:39:42;30.67;;;10.70;;
16037;SDS011;8123;50.906;6.172;2024-01-06T12:42:10;22.50;;;10.80;;
16037;SDS011;8123;50.906;6.172;2024-01-06T12:44:36;24.53;;;12.60;;
16037;SDS011;8123;50.906;6.172;2024-01-06T12:47:04;28.93;;;13.30;;
16037;SDS011;8123;50.906;6.172;2024-01-06T12:49:29;33.50;;;14.90;;
16037;SDS011;8123;50.906;6.172;2024-01-06T12:51:55;27.63;;;14.47;;
16037;SDS011;8123;50.906;6.172;2024-01-06T12:54:21;38.73;;;14.83;;
16037;SDS011;8123;50.906;6.172;2024-01-06T12:56:46;40.63;;;17.27;;
16037;SDS011;8123;50.906;6.172;2024-01-06T12:59:12;44.10;;;16.17;;
16037;SDS011;8123;50.906;6.172;2024-01-06T13:01:38;43.63;;;17.07;;
16037;SDS011;8123;50.906;6.172;2024-01-06T13:04:04;34.90;;;15.97;;
16037;SDS011;8123;50.906;6.172;2024-01-06T13:06:29;41.57;;;16.80;;
16037;SDS011;8123;50.906;6.172;2024-01-06T13:08:55;31.87;;;13.43;;
16037;SDS011;8123;50.906;6.172;2024-01-06T13:11:21;50.03;;;16.00;;
16037;SDS011;8123;50.906;6.172;2024-01-06T13:13:47;33.53;;;14.33;;
16037;SDS011;8123;50.906;6.172;2024-01-06T13:16:13;32.53;;;15.33;;
16037;SDS011;8123;50.906;6.172;2024-01-06T13:18:38;47.20;;;19.57;;
16037;SDS011;8123;50.906;6.172;2024-01-06T13:21:04;41.17;;;16.30;;
16037;SDS011;8123;50.906;6.172;2024-01-06T13:23:31;41.33;;;17.37;;
16037;SDS011;8123;50.906;6.172;2024-01-06T13:25:56;69.80;;;28.23;;
16037;SDS011;8123;50.906;6.172;2024-01-06T13:28:22;51.17;;;20.70;;
16037;SDS011;8123;50.906;6.172;2024-01-06T13:30:49;40.67;;;17.20;;
16037;SDS011;8123;50.906;6.172;2024-01-06T13:33:15;39.03;;;16.87;;
16037;SDS011;8123;50.906;6.172;2024-01-06T13:35:41;37.53;;;16.97;;
16037;SDS011;8123;50.906;6.172;2024-01-06T13:38:07;43.37;;;18.47;;
16037;SDS011;8123;50.906;6.172;2024-01-06T13:40:34;48.17;;;18.70;;
16037;SDS011;8123;50.906;6.172;2024-01-06T13:42:59;42.57;;;16.70;;
16037;SDS011;8123;50.906;6.172;2024-01-06T13:45:25;37.30;;;16.60;;
16037;SDS011;8123;50.906;6.172;2024-01-06T13:47:51;38.47;;;17.03;;
16037;SDS011;8123;50.906;6.172;2024-01-06T13:50:17;40.20;;;16.90;;
16037;SDS011;8123;50.906;6.172;2024-01-06T13:52:43;43.13;;;20.27;;
16037;SDS011;8123;50.906;6.172;2024-01-06T13:55:10;44.70;;;19.67;;
16037;SDS011;8123;50.906;6.172;2024-01-06T13:57:36;63.60;;;24.60;;
16037;SDS011;8123;50.906;6.172;2024-01-06T14:00:08;50.00;;;19.80;;
16037;SDS011;8123;50.906;6.172;2024-01-06T14:02:34;49.30;;;18.00;;
16037;SDS011;8123;50.906;6.172;2024-01-06T14:05:00;40.90;;;17.73;;
16037;SDS011;8123;50.906;6.172;2024-01-06T14:07:25;37.27;;;18.27;;
16037;SDS011;8123;50.906;6.172;2024-01-06T14:09:51;38.00;;;17.33;;
16037;SDS011;8123;50.906;6.172;2024-01-06T14:12:17;42.47;;;16.23;;
16037;SDS011;8123;50.906;6.172;2024-01-06T14:14:44;59.27;;;22.10;;
16037;SDS011;8123;50.906;6.172;2024-01-06T14:17:10;40.00;;;17.57;;
16037;SDS011;8123;50.906;6.172;2024-01-06T14:19:36;40.10;;;18.10;;
16037;SDS011;8123;50.906;6.172;2024-01-06T14:22:01;48.80;;;20.67;;
16037;SDS011;8123;50.906;6.172;2024-01-06T14:24:29;65.47;;;26.27;;
16037;SDS011;8123;50.906;6.172;2024-01-06T14:26:55;35.13;;;15.87;;
16037;SDS011;8123;50.906;6.172;2024-01-06T14:29:21;46.67;;;16.87;;
16037;SDS011;8123;50.906;6.172;2024-01-06T14:31:48;47.80;;;17.53;;
16037;SDS011;8123;50.906;6.172;2024-01-06T14:34:14;43.17;;;17.77;;